Rechercher aéroport 
image banner adimage banner adimage banner ad
image banner ad

57CA - Merle Norman Cosmetics Bldg 3 Heliport

Situé à Los Angeles, United States

ICAO - 57CA, IATA -

Données fournies par Airmate  

Information générale

Coordonnées: N33°45'56" W117°44'39"
Élévation : 1286 feet MSL.
 
Voir autres Aéroports à California

Données opérationnelles

Special qualification required
Heure actuelle UTC:
Heure actuelle locale:
METAR: KSNA 251135Z AUTO 00000KT 10SM BKN015 21/16 A2995 RMK AO2 T02110161
TAF: KSNA 250520Z 2506/2606 VRB04KT P6SM BKN010 BKN120 FM251700 24006KT P6SM SCT010 OVC120 FM252000 22009KT P6SM FEW010 OVC120 FM260300 VRB05KT P6SM OVC120
Voir NOTAMs / SUP AIP / TFR affectant cet aéroport [VIEW]
Fréquences de communication: [VIEW]

Pistes:

Coordonnées de l'aéroport

Adresse: Los Angeles United States

Vue satellite de 57CA